createdAt,value
2023-05-21T00:02:19.674Z,99221.86
2023-05-21T00:04:47.826Z,99221.70
2023-05-21T00:07:15.093Z,99216.48
2023-05-21T00:09:42.614Z,99217.86
2023-05-21T00:12:10.886Z,99213.50
2023-05-21T00:14:38.225Z,99204.23
2023-05-21T00:17:05.782Z,99204.88
2023-05-21T00:19:33.421Z,99205.51
2023-05-21T00:22:04.069Z,99202.70
2023-05-21T00:24:31.490Z,99199.92
2023-05-21T00:26:58.821Z,99195.24
2023-05-21T00:29:27.307Z,99193.68
2023-05-21T00:31:56.163Z,99192.50
2023-05-21T00:34:23.647Z,99191.31
2023-05-21T00:36:53.066Z,99197.06
2023-05-21T00:39:20.672Z,99193.73
2023-05-21T00:41:48.269Z,99194.57
2023-05-21T00:44:17.890Z,99196.97
2023-05-21T00:46:48.838Z,99199.91
2023-05-21T00:49:16.850Z,99200.27
2023-05-21T00:51:44.754Z,99199.73
2023-05-21T00:54:13.242Z,99200.76
2023-05-21T00:56:41.900Z,99195.85
2023-05-21T00:59:09.337Z,99192.15
2023-05-21T01:01:37.366Z,99195.61
2023-05-21T01:04:05.260Z,99199.80
2023-05-21T01:06:35.554Z,99198.57
2023-05-21T01:09:05.472Z,99191.41
2023-05-21T01:11:40.554Z,99191.21
2023-05-21T01:14:10.177Z,99190.33
2023-05-21T01:16:38.960Z,99191.73
2023-05-21T01:19:10.041Z,99183.91
2023-05-21T01:21:42.086Z,99183.40
2023-05-21T01:24:09.579Z,99185.65
2023-05-21T01:26:38.489Z,99185.27
2023-05-21T01:29:06.456Z,99183.70
2023-05-21T01:32:05.015Z,99182.51
2023-05-21T01:34:57.482Z,99180.89
2023-05-21T01:37:34.977Z,99182.39
2023-05-21T01:40:10.892Z,99180.77
2023-05-21T01:42:42.889Z,99180.55
2023-05-21T01:45:12.203Z,99178.11
2023-05-21T01:47:40.738Z,99176.52
2023-05-21T01:50:09.542Z,99177.63
2023-05-21T01:52:37.336Z,99174.91
2023-05-21T01:55:05.561Z,99175.59
2023-05-21T01:57:32.768Z,99172.31
2023-05-21T02:00:01.324Z,99171.63
2023-05-21T02:02:29.159Z,99170.09
2023-05-21T02:04:56.419Z,99167.65
2023-05-21T02:07:24.596Z,99166.11
2023-05-21T02:09:52.021Z,99162.73
2023-05-21T02:12:19.203Z,99166.30
2023-05-21T02:14:50.145Z,99166.32
2023-05-21T02:17:18.141Z,99161.24
2023-05-21T02:19:45.687Z,99162.94
2023-05-21T02:22:13.943Z,99160.58
2023-05-21T02:24:42.554Z,99164.55
2023-05-21T02:27:10.252Z,99168.00
2023-05-21T02:29:37.738Z,99163.81
2023-05-21T02:32:05.549Z,99164.15
2023-05-21T02:34:36.154Z,99161.55
2023-05-21T02:37:03.734Z,99159.50
2023-05-21T02:39:31.072Z,99156.77
2023-05-21T02:41:58.478Z,99161.51
2023-05-21T02:44:25.913Z,99162.06
2023-05-21T02:46:54.978Z,99160.33
2023-05-21T02:49:22.577Z,99158.41
2023-05-21T02:51:50.804Z,99160.95
2023-05-21T02:54:18.522Z,99161.59
2023-05-21T02:56:46.353Z,99161.23
2023-05-21T02:59:13.897Z,99166.81
2023-05-21T03:01:41.456Z,99162.13
2023-05-21T03:04:09.241Z,99156.67
2023-05-21T03:06:37.090Z,99157.14
2023-05-21T03:09:06.256Z,99147.90
2023-05-21T03:11:33.629Z,99149.11
2023-05-21T03:14:01.748Z,99146.86
2023-05-21T03:16:29.399Z,99150.50
2023-05-21T03:18:56.583Z,99151.90
2023-05-21T03:21:24.424Z,99151.55
2023-05-21T03:23:52.750Z,99152.79
2023-05-21T03:26:21.634Z,99148.19
2023-05-21T03:28:49.633Z,99145.68
2023-05-21T03:31:17.296Z,99146.71
2023-05-21T03:33:49.557Z,99149.64
2023-05-21T03:36:29.097Z,99149.02
2023-05-21T03:38:56.357Z,99152.17
2023-05-21T03:41:23.680Z,99151.11
2023-05-21T03:43:55.800Z,99153.56
2023-05-21T03:46:25.905Z,99156.39
2023-05-21T03:49:01.336Z,99160.45
2023-05-21T03:51:31.231Z,99165.20
2023-05-21T03:53:59.361Z,99164.91
2023-05-21T03:56:27.321Z,99164.28
2023-05-21T03:58:54.650Z,99169.20
2023-05-21T04:01:21.928Z,99167.15
2023-05-21T04:03:50.422Z,99165.46
2023-05-21T04:06:18.686Z,99165.33
2023-05-21T04:08:46.387Z,99163.29
2023-05-21T04:11:14.328Z,99161.91
2023-05-21T04:13:41.458Z,99167.84
2023-05-21T04:16:09.186Z,99169.61
2023-05-21T04:18:37.006Z,99169.64
2023-05-21T04:21:04.565Z,99170.58
2023-05-21T04:23:33.196Z,99164.88
2023-05-21T04:26:02.577Z,99164.90
2023-05-21T04:28:30.410Z,99167.36
2023-05-21T04:30:58.323Z,99168.36
2023-05-21T04:33:26.004Z,99165.13
2023-05-21T04:35:53.335Z,99161.74
2023-05-21T04:38:21.483Z,99160.17
2023-05-21T04:40:50.904Z,99168.85
2023-05-21T04:43:25.758Z,99169.87
2023-05-21T04:45:57.083Z,99172.77
2023-05-21T04:48:26.546Z,99170.11
2023-05-21T04:50:55.571Z,99170.91
2023-05-21T04:53:25.858Z,99172.98
2023-05-21T04:55:53.381Z,99170.20
2023-05-21T04:58:20.780Z,99169.85
2023-05-21T05:00:51.025Z,99168.00
2023-05-21T05:03:19.647Z,99166.58
2023-05-21T05:05:47.022Z,99174.59
2023-05-21T05:08:16.022Z,99169.44
2023-05-21T05:10:43.837Z,99167.23
2023-05-21T05:13:12.159Z,99171.54
2023-05-21T05:15:40.413Z,99175.38
2023-05-21T05:18:08.951Z,99175.42
2023-05-21T05:20:36.403Z,99171.90
2023-05-21T05:23:04.211Z,99174.04
2023-05-21T05:25:32.355Z,99173.13
2023-05-21T05:27:59.913Z,99172.64
2023-05-21T05:30:27.808Z,99182.33
2023-05-21T05:32:56.653Z,99181.63
2023-05-21T05:35:24.172Z,99176.27
2023-05-21T05:37:51.710Z,99174.13
2023-05-21T05:40:19.306Z,99180.65
2023-05-21T05:42:49.276Z,99177.67
2023-05-21T05:45:17.555Z,99175.80
2023-05-21T05:47:45.107Z,99173.48
2023-05-21T05:50:12.703Z,99174.90
2023-05-21T05:52:40.547Z,99175.17
2023-05-21T05:55:08.579Z,99172.34
2023-05-21T05:57:35.985Z,99171.22
2023-05-21T06:00:10.355Z,99168.96
2023-05-21T06:02:40.685Z,99166.79
2023-05-21T06:05:09.647Z,99167.46
2023-05-21T06:07:38.602Z,99172.57
2023-05-21T06:10:07.376Z,99172.54
2023-05-21T06:12:35.118Z,99168.37
2023-05-21T06:15:03.359Z,99166.85
2023-05-21T06:17:31.580Z,99166.98
2023-05-21T06:19:59.255Z,99172.17
2023-05-21T06:22:27.377Z,99169.19
2023-05-21T06:24:55.727Z,99172.62
2023-05-21T06:27:22.959Z,99173.07
2023-05-21T06:29:51.167Z,99174.30
2023-05-21T06:32:21.090Z,99175.58
2023-05-21T06:34:49.116Z,99171.65
2023-05-21T06:37:21.745Z,99173.73
2023-05-21T06:39:49.668Z,99173.42
2023-05-21T06:42:17.102Z,99174.39
2023-05-21T06:45:13.951Z,99175.29
2023-05-21T06:47:44.516Z,99169.98
2023-05-21T06:50:12.967Z,99168.66
2023-05-21T06:52:41.205Z,99165.31
2023-05-21T06:55:09.140Z,99170.71
2023-05-21T06:57:57.715Z,99164.69
2023-05-21T07:00:25.550Z,99158.79
2023-05-21T07:02:53.910Z,99152.72
2023-05-21T07:05:21.968Z,99152.48
2023-05-21T07:07:49.346Z,99152.11
2023-05-21T07:10:16.738Z,99154.02
2023-05-21T07:12:44.725Z,99161.57
2023-05-21T07:15:12.343Z,99159.14
2023-05-21T07:17:39.630Z,99159.52
2023-05-21T07:20:09.053Z,99159.48
2023-05-21T07:22:42.487Z,99159.04
2023-05-21T07:25:10.626Z,99159.39
2023-05-21T07:27:37.906Z,99159.44
2023-05-21T07:30:05.938Z,99162.06
2023-05-21T07:32:33.735Z,99158.14
2023-05-21T07:35:04.032Z,99154.79
2023-05-21T07:37:31.943Z,99157.85
2023-05-21T07:40:00.661Z,99150.64
2023-05-21T07:42:28.352Z,99146.23
2023-05-21T07:44:56.566Z,99141.16
2023-05-21T07:47:24.929Z,99139.76
2023-05-21T07:49:52.596Z,99143.83
2023-05-21T07:52:19.975Z,99142.35
2023-05-21T07:54:47.899Z,99139.08
2023-05-21T07:57:15.877Z,99144.18
2023-05-21T07:59:51.942Z,99149.61
2023-05-21T08:02:19.650Z,99148.36
2023-05-21T08:04:47.024Z,99146.57
2023-05-21T08:07:20.044Z,99146.40
2023-05-21T08:09:47.448Z,99143.93
2023-05-21T08:12:15.575Z,99142.61
2023-05-21T08:14:43.444Z,99139.27
2023-05-21T08:17:12.062Z,99137.04
2023-05-21T08:19:39.997Z,99136.73
2023-05-21T08:22:08.789Z,99133.45
2023-05-21T08:24:37.364Z,99136.19
2023-05-21T08:27:05.217Z,99133.56
2023-05-21T08:29:33.699Z,99134.81
2023-05-21T08:32:01.477Z,99133.61
2023-05-21T08:34:28.752Z,99134.64
2023-05-21T08:37:18.338Z,99138.27
2023-05-21T08:39:58.309Z,99139.02
2023-05-21T08:42:45.809Z,99136.90
2023-05-21T08:45:21.666Z,99141.64
2023-05-21T08:47:56.887Z,99140.87
2023-05-21T08:50:27.314Z,99137.15
2023-05-21T08:52:55.304Z,99134.71
2023-05-21T08:55:23.710Z,99138.73
2023-05-21T08:57:54.084Z,99138.06
2023-05-21T09:00:22.008Z,99134.65
2023-05-21T09:02:54.112Z,99136.71
2023-05-21T09:05:22.363Z,99141.52
2023-05-21T09:08:08.998Z,99142.23
2023-05-21T09:11:01.872Z,99144.29
2023-05-21T09:13:34.451Z,99146.34
2023-05-21T09:16:06.213Z,99147.06
2023-05-21T09:18:33.823Z,99147.62
2023-05-21T09:21:31.509Z,99149.95
2023-05-21T09:24:09.130Z,99146.90
2023-05-21T09:26:37.132Z,99152.36
2023-05-21T09:29:06.066Z,99155.00
2023-05-21T09:31:33.759Z,99150.54
2023-05-21T09:34:01.845Z,99154.56
2023-05-21T09:36:29.123Z,99148.14
2023-05-21T09:39:00.367Z,99154.17
2023-05-21T09:41:35.619Z,99153.91
2023-05-21T09:44:06.902Z,99150.02
2023-05-21T09:46:42.242Z,99151.31
2023-05-21T09:49:28.584Z,99150.84
2023-05-21T09:51:57.433Z,99149.30
2023-05-21T09:54:30.465Z,99145.67
2023-05-21T09:57:00.049Z,99144.05
2023-05-21T09:59:37.235Z,99143.20
2023-05-21T10:02:16.798Z,99139.33
2023-05-21T10:04:48.588Z,99135.79
2023-05-21T10:07:20.189Z,99131.31
2023-05-21T10:09:48.844Z,99131.80
2023-05-21T10:12:19.436Z,99128.42
2023-05-21T10:14:52.298Z,99123.93
2023-05-21T10:17:22.972Z,99125.23
2023-05-21T10:19:52.461Z,99119.91
2023-05-21T10:22:20.182Z,99118.44
2023-05-21T10:24:49.156Z,99118.30
2023-05-21T10:27:17.505Z,99112.45
2023-05-21T10:29:46.139Z,99106.95
2023-05-21T10:32:16.208Z,99106.95
2023-05-21T10:34:43.908Z,99108.95
2023-05-21T10:37:13.458Z,99117.10
2023-05-21T10:39:42.966Z,99111.45
2023-05-21T10:42:32.614Z,99103.60
2023-05-21T10:45:40.153Z,99101.94
2023-05-21T10:48:23.580Z,99103.84
2023-05-21T10:51:01.346Z,99101.80
2023-05-21T10:54:06.749Z,99094.73
2023-05-21T10:57:01.903Z,99091.42
2023-05-21T10:59:48.529Z,99089.83
2023-05-21T11:02:19.053Z,99093.01
2023-05-21T11:04:49.355Z,99090.38
2023-05-21T11:07:24.313Z,99085.70
2023-05-21T11:09:51.886Z,99085.98
2023-05-21T11:12:22.887Z,99081.09
2023-05-21T11:14:58.278Z,99080.46
2023-05-21T11:17:44.046Z,99080.80
2023-05-21T11:20:16.335Z,99082.70
2023-05-21T11:22:46.310Z,99076.89
2023-05-21T11:25:15.181Z,99076.98
2023-05-21T11:27:42.820Z,99079.59
2023-05-21T11:30:16.099Z,99077.52
2023-05-21T11:33:09.866Z,99078.18
2023-05-21T11:35:59.794Z,99072.97
2023-05-21T11:38:31.702Z,99075.51
2023-05-21T11:41:05.739Z,99070.73
2023-05-21T11:43:33.394Z,99073.23
2023-05-21T11:46:01.829Z,99071.10
2023-05-21T11:48:32.545Z,99067.35
2023-05-21T11:51:01.975Z,99066.30
2023-05-21T11:53:31.556Z,99059.81
2023-05-21T11:56:01.633Z,99052.89
2023-05-21T11:58:31.107Z,99051.90
2023-05-21T12:00:58.888Z,99049.63
2023-05-21T12:03:26.678Z,99044.73
2023-05-21T12:05:54.837Z,99050.04
2023-05-21T12:08:28.936Z,99052.92
2023-05-21T12:11:00.279Z,99049.59
2023-05-21T12:13:28.377Z,99050.73
2023-05-21T12:15:55.717Z,99052.50
2023-05-21T12:18:23.155Z,99052.95
2023-05-21T12:20:54.363Z,99054.85
2023-05-21T12:23:25.102Z,99054.40
2023-05-21T12:25:53.348Z,99052.18
2023-05-21T12:28:22.576Z,99050.35
2023-05-21T12:30:51.037Z,99052.06
2023-05-21T12:33:18.569Z,99046.84
2023-05-21T12:35:49.297Z,99048.22
2023-05-21T12:38:16.721Z,99044.38
2023-05-21T12:40:45.214Z,99043.75
2023-05-21T12:43:12.990Z,99041.33
2023-05-21T12:45:40.772Z,99039.53
2023-05-21T12:48:08.546Z,99045.34
2023-05-21T12:50:39.367Z,99039.95
2023-05-21T12:53:10.255Z,99040.45
2023-05-21T12:55:41.435Z,99044.96
2023-05-21T12:58:13.682Z,99042.33
2023-05-21T13:00:45.077Z,99040.53
2023-05-21T13:03:13.802Z,99030.52
2023-05-21T13:05:41.969Z,99035.58
2023-05-21T13:08:10.199Z,99031.52
2023-05-21T13:10:38.219Z,99027.69
2023-05-21T13:13:05.847Z,99025.73
2023-05-21T13:15:33.287Z,99019.14
2023-05-21T13:18:01.547Z,99019.34
2023-05-21T13:20:29.409Z,99023.15
2023-05-21T13:22:57.146Z,99027.17
2023-05-21T13:25:29.389Z,99027.28
2023-05-21T13:27:58.262Z,99030.54
2023-05-21T13:30:26.122Z,99031.20
2023-05-21T13:32:54.551Z,99032.42
2023-05-21T13:35:22.210Z,99032.59
2023-05-21T13:37:49.922Z,99034.27
2023-05-21T13:40:17.193Z,99029.92
2023-05-21T13:42:47.576Z,99032.06
2023-05-21T13:45:17.651Z,99032.20
2023-05-21T13:47:45.385Z,99037.16
2023-05-21T13:50:13.526Z,99035.80
2023-05-21T13:52:41.191Z,99039.48
2023-05-21T13:55:11.378Z,99040.27
2023-05-21T13:57:40.305Z,99039.84
2023-05-21T14:00:13.778Z,99036.54
2023-05-21T14:02:43.910Z,99036.56
2023-05-21T14:05:12.396Z,99037.35
2023-05-21T14:07:39.694Z,99034.53
2023-05-21T14:10:07.459Z,99031.64
2023-05-21T14:12:35.399Z,99029.05
2023-05-21T14:15:02.688Z,99026.71
2023-05-21T14:17:31.590Z,99031.27
2023-05-21T14:19:59.238Z,99033.85
2023-05-21T14:22:26.426Z,99036.08
2023-05-21T14:24:54.063Z,99037.96
2023-05-21T14:27:21.579Z,99033.19
2023-05-21T14:29:48.729Z,99035.80
2023-05-21T14:32:18.421Z,99036.96
2023-05-21T14:34:45.737Z,99034.70
2023-05-21T14:37:14.601Z,99036.64
2023-05-21T14:39:42.132Z,99033.73
2023-05-21T14:42:09.616Z,99028.25
2023-05-21T14:44:37.104Z,99030.59
2023-05-21T14:47:04.740Z,99026.52
2023-05-21T14:49:32.239Z,99026.23
2023-05-21T14:51:59.663Z,99020.85
2023-05-21T14:54:26.891Z,99017.93
2023-05-21T14:56:55.433Z,99016.41
2023-05-21T14:59:23.026Z,99011.40
2023-05-21T15:01:50.761Z,99007.83
2023-05-21T15:04:18.281Z,99004.23
2023-05-21T15:06:45.512Z,99007.85
2023-05-21T15:09:13.258Z,99009.16
2023-05-21T15:11:43.426Z,99008.38
2023-05-21T15:14:10.532Z,99003.53
2023-05-21T15:16:38.576Z,99001.75
2023-05-21T15:19:06.236Z,99000.50
2023-05-21T15:21:33.337Z,98999.92
2023-05-21T15:24:00.890Z,98999.29
2023-05-21T15:26:28.130Z,98999.50
2023-05-21T15:28:55.442Z,98994.77
2023-05-21T15:31:24.431Z,98990.48
2023-05-21T15:33:51.713Z,98986.29
2023-05-21T15:36:18.974Z,98986.38
2023-05-21T15:38:46.495Z,98983.27
2023-05-21T15:41:13.964Z,98982.16
2023-05-21T15:43:41.829Z,98977.63
2023-05-21T15:46:12.704Z,98977.67
2023-05-21T15:48:41.515Z,98973.98
2023-05-21T15:51:08.789Z,98973.38
2023-05-21T15:53:36.433Z,98978.08
2023-05-21T15:56:04.447Z,98980.23
2023-05-21T15:58:31.689Z,98975.27
2023-05-21T16:00:59.090Z,98971.83
2023-05-21T16:03:27.951Z,98976.83
2023-05-21T16:05:55.369Z,98979.98
2023-05-21T16:08:22.711Z,98977.05
2023-05-21T16:10:50.696Z,98972.84
2023-05-21T16:13:17.924Z,98968.38
2023-05-21T16:15:45.932Z,98974.17
2023-05-21T16:18:14.029Z,98970.75
2023-05-21T16:20:41.189Z,98974.13
2023-05-21T16:23:08.908Z,98975.40
2023-05-21T16:25:37.047Z,98978.14
2023-05-21T16:28:04.728Z,98975.37
2023-05-21T16:30:32.504Z,98974.38
2023-05-21T16:33:00.344Z,98980.50
2023-05-21T16:35:27.961Z,98980.81
2023-05-21T16:37:55.763Z,98976.58
2023-05-21T16:40:23.526Z,98978.65
2023-05-21T16:42:52.763Z,98979.53
2023-05-21T16:45:21.356Z,98977.11
2023-05-21T16:47:51.072Z,98976.98
2023-05-21T16:50:21.616Z,98973.48
2023-05-21T16:52:48.940Z,98975.38
2023-05-21T16:55:16.527Z,98975.64
2023-05-21T16:57:43.958Z,98975.20
2023-05-21T17:00:11.995Z,98974.34
2023-05-21T17:02:39.435Z,98974.36
2023-05-21T17:05:30.548Z,98975.23
2023-05-21T17:08:17.175Z,98975.65
2023-05-21T17:11:03.234Z,98979.64
2023-05-21T17:13:46.081Z,98976.70
2023-05-21T17:16:28.858Z,98973.10
2023-05-21T17:19:11.584Z,98973.16
2023-05-21T17:21:54.093Z,98971.33
2023-05-21T17:24:36.553Z,98974.03
2023-05-21T17:27:21.644Z,98974.42
2023-05-21T17:30:07.879Z,98976.85
2023-05-21T17:32:51.270Z,98976.02
2023-05-21T17:35:38.779Z,98970.21
2023-05-21T17:38:21.722Z,98968.02
2023-05-21T17:41:04.115Z,98968.81
2023-05-21T17:43:52.421Z,98967.67
2023-05-21T17:46:37.783Z,98970.27
2023-05-21T17:49:12.995Z,98972.80
2023-05-21T17:51:40.396Z,98974.74
2023-05-21T17:54:11.583Z,98972.46
2023-05-21T17:56:39.387Z,98968.57
2023-05-21T17:59:08.212Z,98970.27
2023-05-21T18:01:36.770Z,98974.44
2023-05-21T18:04:12.343Z,98977.09
2023-05-21T18:06:39.962Z,98980.77
2023-05-21T18:09:10.006Z,98983.17
2023-05-21T18:11:37.970Z,98989.05
2023-05-21T18:14:05.592Z,98989.38
2023-05-21T18:16:33.758Z,98983.90
2023-05-21T18:19:07.362Z,98984.79
2023-05-21T18:21:35.308Z,98989.80
2023-05-21T18:24:06.013Z,98987.45
2023-05-21T18:26:33.397Z,98986.88
2023-05-21T18:29:01.061Z,98985.51
2023-05-21T18:31:28.273Z,98983.24
2023-05-21T18:33:56.147Z,98982.70
2023-05-21T18:36:23.699Z,98979.86
2023-05-21T18:38:51.918Z,98977.92
2023-05-21T18:41:19.928Z,98977.20
2023-05-21T18:43:47.339Z,98980.63
2023-05-21T18:46:14.661Z,98979.70
2023-05-21T18:48:43.620Z,98981.61
2023-05-21T18:51:11.074Z,98982.46
2023-05-21T18:53:38.905Z,98982.29
2023-05-21T18:56:07.463Z,98983.31
2023-05-21T18:58:35.684Z,98984.69
2023-05-21T19:01:03.022Z,98983.73
2023-05-21T19:03:33.396Z,98982.79
2023-05-21T19:06:01.930Z,98983.78
2023-05-21T19:08:29.034Z,98985.80
2023-05-21T19:10:56.526Z,98985.52
2023-05-21T19:13:24.359Z,98981.86
2023-05-21T19:15:54.680Z,98982.45
2023-05-21T19:18:22.254Z,98989.23
2023-05-21T19:20:49.918Z,98988.80
2023-05-21T19:23:17.062Z,98994.11
2023-05-21T19:25:44.551Z,98993.47
2023-05-21T19:28:13.225Z,98992.98
2023-05-21T19:30:40.923Z,98998.90
2023-05-21T19:33:08.677Z,98998.97
2023-05-21T19:35:37.379Z,98998.90
2023-05-21T19:38:05.501Z,98997.39
2023-05-21T19:40:33.466Z,98997.31
2023-05-21T19:43:02.450Z,98996.17
2023-05-21T19:45:29.667Z,98996.88
2023-05-21T19:47:59.548Z,98992.59
2023-05-21T19:50:28.164Z,98991.73
2023-05-21T19:52:56.726Z,98989.55
2023-05-21T19:55:24.356Z,98984.42
2023-05-21T19:57:52.319Z,98984.19
2023-05-21T20:00:19.779Z,98982.70
2023-05-21T20:02:47.971Z,98981.08
2023-05-21T20:05:18.133Z,98983.34
2023-05-21T20:07:48.182Z,98984.36
2023-05-21T20:10:15.487Z,98984.67
2023-05-21T20:12:43.373Z,98986.02
2023-05-21T20:15:12.767Z,98989.66
2023-05-21T20:17:42.213Z,98984.96
2023-05-21T20:20:12.133Z,98985.35
2023-05-21T20:22:39.516Z,98980.41
2023-05-21T20:25:08.840Z,98977.24
2023-05-21T20:27:38.623Z,98975.33
2023-05-21T20:30:07.352Z,98973.58
2023-05-21T20:32:35.854Z,98974.50
2023-05-21T20:35:04.070Z,98977.92
2023-05-21T20:37:34.686Z,98980.11
2023-05-21T20:40:06.484Z,98977.09
2023-05-21T20:42:35.049Z,98976.01
2023-05-21T20:45:03.479Z,98973.32
2023-05-21T20:47:31.945Z,98973.23
2023-05-21T20:49:59.744Z,98976.23
2023-05-21T20:52:27.061Z,98972.61
2023-05-21T20:54:54.884Z,98971.48
2023-05-21T20:57:23.644Z,98974.39
2023-05-21T20:59:53.587Z,98971.31
2023-05-21T21:02:21.540Z,98975.17
2023-05-21T21:04:50.235Z,98982.10
2023-05-21T21:07:18.051Z,98977.83
2023-05-21T21:09:46.611Z,98980.56
2023-05-21T21:14:46.936Z,98982.98
2023-05-21T21:17:14.406Z,98980.17
2023-05-21T21:19:42.067Z,98978.59
2023-05-21T21:22:09.257Z,98980.59
2023-05-21T21:24:36.781Z,98981.22
2023-05-21T21:27:04.713Z,98984.61
2023-05-21T21:29:32.392Z,98982.58
2023-05-21T21:31:59.935Z,98984.66
2023-05-21T21:34:27.651Z,98989.05
2023-05-21T21:36:55.263Z,98989.30
2023-05-21T21:39:22.868Z,98991.15
2023-05-21T21:41:50.333Z,98986.74
2023-05-21T21:44:17.815Z,98988.36
2023-05-21T21:46:45.368Z,98986.92
2023-05-21T21:49:13.969Z,98987.44
2023-05-21T21:51:41.576Z,98987.66
2023-05-21T21:54:09.030Z,98986.88
2023-05-21T21:56:36.532Z,98988.52
2023-05-21T21:59:05.216Z,98990.83
2023-05-21T22:01:33.218Z,98987.98
2023-05-21T22:04:00.858Z,98990.55
2023-05-21T22:06:28.170Z,98988.59
2023-05-21T22:08:55.538Z,98988.12
2023-05-21T22:11:23.205Z,98987.02
2023-05-21T22:13:50.596Z,98988.76
2023-05-21T22:16:18.349Z,98990.86
2023-05-21T22:18:46.175Z,98988.86
2023-05-21T22:21:13.741Z,98983.86
2023-05-21T22:23:41.504Z,98981.70
2023-05-21T22:26:09.827Z,98977.46
2023-05-21T22:28:37.000Z,98975.60
2023-05-21T22:31:04.727Z,98976.57
2023-05-21T22:33:32.076Z,98976.81
2023-05-21T22:35:59.261Z,98976.61
2023-05-21T22:38:27.180Z,98974.80
2023-05-21T22:40:54.464Z,98969.84
2023-05-21T22:43:21.963Z,98968.90
2023-05-21T22:45:49.966Z,98968.53
2023-05-21T22:48:17.926Z,98968.70
2023-05-21T22:50:45.746Z,98969.77
2023-05-21T22:53:13.206Z,98969.59
2023-05-21T22:55:40.727Z,98972.08
2023-05-21T22:58:07.898Z,98966.55
2023-05-21T23:00:35.641Z,98965.75
2023-05-21T23:03:04.302Z,98962.63
2023-05-21T23:05:31.664Z,98962.43
2023-05-21T23:07:58.949Z,98963.29
2023-05-21T23:10:26.811Z,98960.36
2023-05-21T23:12:53.950Z,98963.25
2023-05-21T23:15:21.732Z,98961.37
2023-05-21T23:17:49.607Z,98960.71
2023-05-21T23:20:16.937Z,98959.66
2023-05-21T23:22:44.504Z,98954.09
2023-05-21T23:25:11.832Z,98954.45
2023-05-21T23:27:38.964Z,98955.56
2023-05-21T23:30:06.962Z,98953.52
2023-05-21T23:32:34.719Z,98954.43
2023-05-21T23:35:01.904Z,98948.84
2023-05-21T23:37:29.673Z,98949.73
2023-05-21T23:39:57.341Z,98948.94
2023-05-21T23:42:24.530Z,98949.55
2023-05-21T23:44:52.444Z,98947.55
2023-05-21T23:47:19.959Z,98948.48
2023-05-21T23:49:47.037Z,98948.35
2023-05-21T23:52:17.246Z,98945.29
2023-05-21T23:54:44.521Z,98944.84
2023-05-21T23:57:12.945Z,98942.80
2023-05-21T23:59:40.879Z,98943.38
